地図

経路データ

SID SEASON NUMBER BASIN SUBBASIN NAME ISO_TIME NATURE LAT LON WMO_WIND WMO_PRES WMO_AGENCY TRACK_TYPE DIST2LAND LANDFALL IFLAG USA_AGENCY USA_ATCF_ID USA_LAT USA_LON USA_RECORD USA_STATUS USA_WIND USA_PRES USA_SSHS USA_R34_NE USA_R34_SE USA_R34_SW USA_R34_NW USA_R50_NE USA_R50_SE USA_R50_SW USA_R50_NW USA_R64_NE USA_R64_SE USA_R64_SW USA_R64_NW USA_POCI USA_ROCI USA_RMW USA_EYE TOKYO_LAT TOKYO_LON TOKYO_GRADE TOKYO_WIND TOKYO_PRES TOKYO_R50_DIR TOKYO_R50_LONG TOKYO_R50_SHORT TOKYO_R30_DIR TOKYO_R30_LONG TOKYO_R30_SHORT TOKYO_LAND CMA_LAT CMA_LON CMA_CAT CMA_WIND CMA_PRES HKO_LAT HKO_LON HKO_CAT HKO_WIND HKO_PRES NEWDELHI_LAT NEWDELHI_LON NEWDELHI_GRADE NEWDELHI_WIND NEWDELHI_PRES NEWDELHI_CI NEWDELHI_DP NEWDELHI_POCI REUNION_LAT REUNION_LON REUNION_TYPE REUNION_WIND REUNION_PRES REUNION_TNUM REUNION_CI REUNION_RMW REUNION_R34_NE REUNION_R34_SE REUNION_R34_SW REUNION_R34_NW REUNION_R50_NE REUNION_R50_SE REUNION_R50_SW REUNION_R50_NW REUNION_R64_NE REUNION_R64_SE REUNION_R64_SW REUNION_R64_NW BOM_LAT BOM_LON BOM_TYPE BOM_WIND BOM_PRES BOM_TNUM BOM_CI BOM_RMW BOM_R34_NE BOM_R34_SE BOM_R34_SW BOM_R34_NW BOM_R50_NE BOM_R50_SE BOM_R50_SW BOM_R50_NW BOM_R64_NE BOM_R64_SE BOM_R64_SW BOM_R64_NW BOM_ROCI BOM_POCI BOM_EYE BOM_POS_METHOD BOM_PRES_METHOD NADI_LAT NADI_LON NADI_CAT NADI_WIND NADI_PRES WELLINGTON_LAT WELLINGTON_LON WELLINGTON_WIND WELLINGTON_PRES DS824_LAT DS824_LON DS824_STAGE DS824_WIND DS824_PRES TD9636_LAT TD9636_LON TD9636_STAGE TD9636_WIND TD9636_PRES TD9635_LAT TD9635_LON TD9635_WIND TD9635_PRES TD9635_ROCI NEUMANN_LAT NEUMANN_LON NEUMANN_CLASS NEUMANN_WIND NEUMANN_PRES MLC_LAT MLC_LON MLC_CLASS MLC_WIND MLC_PRES USA_GUST BOM_GUST BOM_GUST_PER REUNION_GUST REUNION_GUST_PER USA_SEAHGT USA_SEARAD_NE USA_SEARAD_SE USA_SEARAD_SW USA_SEARAD_NW STORM_SPEED STORM_DIR
1897296N25283 1897 43 NA NA NOT_NAMED 1897-10-23 06:00:00 TS 24.5000 -77.3000 50 hurdat_atl main 40 40 O_____________ hurdat_atl AL061897 24.5000 -77.3000 TS 50 0 13 13
1897296N25283 1897 43 NA NA NOT_NAMED 1897-10-23 09:00:00 TS 25.1074 -77.1446 main 83 83 P_____________ AL061897 25.1074 -77.1446 TS 50 0 14 16
1897296N25283 1897 43 NA NA NOT_NAMED 1897-10-23 12:00:00 TS 25.8000 -76.9000 50 hurdat_atl main 135 135 O_____________ hurdat_atl AL061897 25.8000 -76.9000 TS 50 0 16 20
1897296N25283 1897 43 NA NA NOT_NAMED 1897-10-23 15:00:00 TS 26.6277 -76.5156 main 224 224 P_____________ AL061897 26.6277 -76.5156 TS 50 0 19 23
1897296N25283 1897 43 NA NA NOT_NAMED 1897-10-23 18:00:00 TS 27.5000 -76.1000 50 hurdat_atl main 328 328 O_____________ hurdat_atl AL061897 27.5000 -76.1000 TS 50 0 18 21
1897296N25283 1897 43 NA NA NOT_NAMED 1897-10-23 21:00:00 TS 28.3148 -75.7769 main 418 418 P_____________ AL061897 28.3148 -75.7769 TS 50 0 17 18
1897296N25283 1897 43 NA NA NOT_NAMED 1897-10-24 00:00:00 TS 29.1000 -75.5000 50 hurdat_atl main 491 491 O_____________ hurdat_atl AL061897 29.1000 -75.5000 TS 50 0 16 17
1897296N25283 1897 43 NA NA NOT_NAMED 1897-10-24 03:00:00 TS 29.8574 -75.2419 main 518 463 P_____________ AL061897 29.8574 -75.2419 TS 50 0 16 16
1897296N25283 1897 43 NA NA NOT_NAMED 1897-10-24 06:00:00 TS 30.6000 -75.0000 50 hurdat_atl main 463 410 O_____________ hurdat_atl AL061897 30.6000 -75.0000 TS 50 0 16 16
1897296N25283 1897 43 NA NA NOT_NAMED 1897-10-24 09:00:00 TS 31.3574 -74.7497 main 404 344 P_____________ AL061897 31.3574 -74.7497 TS 50 0 16 16
1897296N25283 1897 43 NA NA NOT_NAMED 1897-10-24 12:00:00 TS 32.1000 -74.5000 50 hurdat_atl main 344 293 O_____________ hurdat_atl AL061897 32.1000 -74.5000 TS 50 0 15 16
1897296N25283 1897 43 NA NA NOT_NAMED 1897-10-24 15:00:00 TS 32.8224 -74.2497 main 299 262 P_____________ AL061897 32.8224 -74.2497 TS 50 0 15 17
1897296N25283 1897 43 NA NA NOT_NAMED 1897-10-24 18:00:00 TS 33.5000 -74.0000 50 hurdat_atl main 262 247 O_____________ hurdat_atl AL061897 33.5000 -74.0000 TS 50 0 14 18
1897296N25283 1897 43 NA NA NOT_NAMED 1897-10-24 21:00:00 TS 34.1150 -73.7348 main 247 218 P_____________ AL061897 34.1150 -73.7348 TS 50 0 13 19
1897296N25283 1897 43 NA NA NOT_NAMED 1897-10-25 00:00:00 TS 34.7000 -73.5000 50 hurdat_atl main 218 206 O_____________ hurdat_atl AL061897 34.7000 -73.5000 TS 50 0 13 19
1897296N25283 1897 43 NA NA NOT_NAMED 1897-10-25 03:00:00 TS 35.3073 -73.2464 main 214 206 P_____________ AL061897 35.3073 -73.2464 TS 52 0 12 12
1897296N25283 1897 43 NA NA NOT_NAMED 1897-10-25 06:00:00 TS 35.9000 -73.2000 55 hurdat_atl main 207 195 O_____________ hurdat_atl AL061897 35.9000 -73.2000 TS 55 0 13 349
1897296N25283 1897 43 NA NA NOT_NAMED 1897-10-25 09:00:00 TS 36.5625 -73.5343 main 199 151 P_____________ AL061897 36.5625 -73.5343 TS 55 0 13 327
1897296N25283 1897 43 NA NA NOT_NAMED 1897-10-25 12:00:00 TS 37.0000 -74.1000 55 hurdat_atl main 151 104 O_____________ hurdat_atl AL061897 37.0000 -74.1000 TS 55 0 10 294
1897296N25283 1897 43 NA NA NOT_NAMED 1897-10-25 15:00:00 TS 36.9876 -74.7291 main 104 54 P_____________ AL061897 36.9876 -74.7291 TS 55 0 10 253
1897296N25283 1897 43 NA NA NOT_NAMED 1897-10-25 18:00:00 TS 36.7000 -75.3000 55 hurdat_atl main 54 8 O_____________ hurdat_atl AL061897 36.7000 -75.3000 TS 55 0 10 233
1897296N25283 1897 43 NA NA NOT_NAMED 1897-10-25 21:00:00 TS 36.4120 -75.6930 main 8 0 P_____________ AL061897 36.4120 -75.6930 TS 55 0 9 214
1897296N25283 1897 43 NA NA NOT_NAMED 1897-10-25 23:00:00 TS 36.1000 -75.8000 55 hurdat_atl main 0 0 O_____________ hurdat_atl AL061897 36.1000 -75.8000 L TS 55 0 10 189
1897296N25283 1897 43 NA NA NOT_NAMED 1897-10-26 00:00:00 TS 35.9000 -75.8000 50 hurdat_atl main 0 0 O_____________ hurdat_atl AL061897 35.9000 -75.8000 TS 50 0 11 170
1897296N25283 1897 43 NA NA NOT_NAMED 1897-10-26 03:00:00 TS 35.3736 -75.6475 main 24 24 P_____________ AL061897 35.3736 -75.6475 TS 47 0 10 160
1897296N25283 1897 43 NA NA NOT_NAMED 1897-10-26 06:00:00 TS 35.0000 -75.4000 45 hurdat_atl main 72 72 O_____________ hurdat_atl AL061897 35.0000 -75.4000 TS 45 0 7 150
1897296N25283 1897 43 NA NA NOT_NAMED 1897-10-26 09:00:00 TS 34.7975 -75.2429 main 100 100 P_____________ AL061897 34.7975 -75.2429 TS 42 0 4 141
1897296N25283 1897 43 NA NA NOT_NAMED 1897-10-26 12:00:00 TS 34.7000 -75.1000 40 hurdat_atl main 111 111 O_____________ hurdat_atl AL061897 34.7000 -75.1000 TS 40 0 3 131
1897296N25283 1897 43 NA NA NOT_NAMED 1897-10-26 15:00:00 TS 34.5925 -74.9576 main 123 123 P_____________ AL061897 34.5925 -74.9576 TS 40 0 3 129
1897296N25283 1897 43 NA NA NOT_NAMED 1897-10-26 18:00:00 TS 34.5000 -74.8000 40 hurdat_atl main 143 143 O_____________ hurdat_atl AL061897 34.5000 -74.8000 TS 40 0 3 124
1897296N25283 1897 43 NA NA NOT_NAMED 1897-10-26 21:00:00 TS 34.4074 -74.6227 main 164 164 P_____________ AL061897 34.4074 -74.6227 TS 42 0 4 121
1897296N25283 1897 43 NA NA NOT_NAMED 1897-10-27 00:00:00 TS 34.3000 -74.4000 45 hurdat_atl main 185 185 O_____________ hurdat_atl AL061897 34.3000 -74.4000 TS 45 0 5 122
1897296N25283 1897 43 NA NA NOT_NAMED 1897-10-27 03:00:00 TS 34.1499 -74.1299 main 220 220 P_____________ AL061897 34.1499 -74.1299 TS 47 0 6 121
1897296N25283 1897 43 NA NA NOT_NAMED 1897-10-27 06:00:00 TS 34.0000 -73.8000 50 hurdat_atl main 248 248 O_____________ hurdat_atl AL061897 34.0000 -73.8000 TS 50 0 6 114
1897296N25283 1897 43 NA NA NOT_NAMED 1897-10-27 09:00:00 TS 33.8849 -73.4225 main 282 282 P_____________ AL061897 33.8849 -73.4225 TS 50 0 7 107
1897296N25283 1897 43 NA NA NOT_NAMED 1897-10-27 12:00:00 TS 33.8000 -73.0000 50 hurdat_atl main 317 317 O_____________ hurdat_atl AL061897 33.8000 -73.0000 TS 50 0 7 101
1897296N25283 1897 43 NA NA NOT_NAMED 1897-10-27 15:00:00 TS 33.7424 -72.5576 main 353 353 P_____________ AL061897 33.7424 -72.5576 TS 50 0 8 98
1897296N25283 1897 43 NA NA NOT_NAMED 1897-10-27 18:00:00 TS 33.7000 -72.1000 50 hurdat_atl main 388 388 O_____________ hurdat_atl AL061897 33.7000 -72.1000 TS 50 0 8 98
1897296N25283 1897 43 NA NA NOT_NAMED 1897-10-27 21:00:00 TS 33.6423 -71.6574 main 424 424 P_____________ AL061897 33.6423 -71.6574 TS 50 0 8 98
1897296N25283 1897 43 NA NA NOT_NAMED 1897-10-28 00:00:00 TS 33.6000 -71.2000 50 hurdat_atl main 462 462 O_____________ hurdat_atl AL061897 33.6000 -71.2000 TS 50 0 8 94
1897296N25283 1897 43 NA NA NOT_NAMED 1897-10-28 03:00:00 TS 33.5924 -70.7076 main 501 501 P_____________ AL061897 33.5924 -70.7076 TS 50 0 8 90
1897296N25283 1897 43 NA NA NOT_NAMED 1897-10-28 06:00:00 TS 33.6000 -70.2000 50 hurdat_atl main 541 541 O_____________ hurdat_atl AL061897 33.6000 -70.2000 TS 50 0 8 92
1897296N25283 1897 43 NA NA NOT_NAMED 1897-10-28 09:00:00 TS 33.5697 -69.7069 main 583 583 P_____________ AL061897 33.5697 -69.7069 TS 50 0 8 90
1897296N25283 1897 43 NA NA NOT_NAMED 1897-10-28 12:00:00 TS 33.6000 -69.2000 50 hurdat_atl main 624 624 O_____________ hurdat_atl AL061897 33.6000 -69.2000 TS 50 0 9 79
1897296N25283 1897 43 NA NA NOT_NAMED 1897-10-28 15:00:00 TS 33.7397 -68.6720 main 662 662 P_____________ AL061897 33.7397 -68.6720 TS 50 0 10 66
1897296N25283 1897 43 NA NA NOT_NAMED 1897-10-28 18:00:00 TS 34.0000 -68.1000 50 hurdat_atl main 702 702 O_____________ hurdat_atl AL061897 34.0000 -68.1000 TS 50 0 12 58
1897296N25283 1897 43 NA NA NOT_NAMED 1897-10-28 21:00:00 TS 34.3776 -67.4506 main 742 742 P_____________ AL061897 34.3776 -67.4506 TS 50 0 13 53
1897296N25283 1897 43 NA NA NOT_NAMED 1897-10-29 00:00:00 TS 34.8000 -66.8000 50 hurdat_atl main 795 795 O_____________ hurdat_atl AL061897 34.8000 -66.8000 TS 50 0 13 53
1897296N25283 1897 43 NA NA NOT_NAMED 1897-10-29 03:00:00 TS 35.1346 -66.2263 main 805 780 P_____________ AL061897 35.1346 -66.2263 TS 50 0 11 52
1897296N25283 1897 43 NA NA NOT_NAMED 1897-10-29 06:00:00 TS 35.5000 -65.7000 50 hurdat_atl main 784 757 O_____________ hurdat_atl AL061897 35.5000 -65.7000 TS 50 0 12 45
1897296N25283 1897 43 NA NA NOT_NAMED 1897-10-29 09:00:00 TS 35.9999 -65.1778 main 757 736 P_____________ AL061897 35.9999 -65.1778 TS 50 0 13 39
1897296N25283 1897 43 NA NA NOT_NAMED 1897-10-29 12:00:00 ET 36.5000 -64.7000 50 hurdat_atl main 736 723 O_____________ hurdat_atl AL061897 36.5000 -64.7000 EX 50 -4 11 40
1897296N25283 1897 43 NA NA NOT_NAMED 1897-10-29 15:00:00 ET 36.8798 -64.2693 main 723 710 P_____________ AL061897 36.8798 -64.2693 EX 50 -4 9 42
1897296N25283 1897 43 NA NA NOT_NAMED 1897-10-29 18:00:00 ET 37.2000 -63.9000 50 hurdat_atl main 710 682 O_____________ hurdat_atl AL061897 37.2000 -63.9000 EX 50 -4 8 41
1897296N25283 1897 43 NA NA NOT_NAMED 1897-10-29 21:00:00 ET 37.4998 -63.5844 main 682 656 P_____________ AL061897 37.4998 -63.5844 EX 50 -4 8 38
1897296N25283 1897 43 NA NA NOT_NAMED 1897-10-30 00:00:00 ET 37.8000 -63.3000 50 hurdat_atl main 656 628 O_____________ hurdat_atl AL061897 37.8000 -63.3000 EX 50 -4 8 35
1897296N25283 1897 43 NA NA NOT_NAMED 1897-10-30 03:00:00 ET 38.1424 -63.0072 main 630 597 P_____________ AL061897 38.1424 -63.0072 EX 50 -4 8 34
1897296N25283 1897 43 NA NA NOT_NAMED 1897-10-30 06:00:00 ET 38.5000 -62.7000 50 hurdat_atl main 597 576 O_____________ hurdat_atl AL061897 38.5000 -62.7000 EX 50 -4 9 36
1897296N25283 1897 43 NA NA NOT_NAMED 1897-10-30 09:00:00 ET 38.8425 -62.3572 main 576 551 P_____________ AL061897 38.8425 -62.3572 EX 50 -4 9 38
1897296N25283 1897 43 NA NA NOT_NAMED 1897-10-30 12:00:00 ET 39.2000 -62.0000 50 hurdat_atl main 551 526 O_____________ hurdat_atl AL061897 39.2000 -62.0000 EX 50 -4 9 36
1897296N25283 1897 43 NA NA NOT_NAMED 1897-10-30 15:00:00 ET 39.5849 -61.6496 main 531 510 P_____________ AL061897 39.5849 -61.6496 EX 50 -4 10 34
1897296N25283 1897 43 NA NA NOT_NAMED 1897-10-30 18:00:00 ET 40.0000 -61.3000 50 hurdat_atl main 510 490 O_____________ hurdat_atl AL061897 40.0000 -61.3000 EX 50 -4 10 32
1897296N25283 1897 43 NA NA NOT_NAMED 1897-10-30 21:00:00 ET 40.4423 -60.9570 main 490 458 P_____________ AL061897 40.4423 -60.9570 EX 50 -4 10 31
1897296N25283 1897 43 NA NA NOT_NAMED 1897-10-31 00:00:00 ET 40.9000 -60.6000 50 hurdat_atl main 458 427 O_____________ hurdat_atl AL061897 40.9000 -60.6000 EX 50 -4 11 32
1897296N25283 1897 43 NA NA NOT_NAMED 1897-10-31 03:00:00 ET 41.3574 -60.2072 main 421 392 P_____________ AL061897 41.3574 -60.2072 EX 50 -4 11 34
1897296N25283 1897 43 NA NA NOT_NAMED 1897-10-31 06:00:00 ET 41.8000 -59.8000 50 hurdat_atl main 392 357 O_____________ hurdat_atl AL061897 41.8000 -59.8000 EX 50 -4 10 35
1897296N25283 1897 43 NA NA NOT_NAMED 1897-10-31 09:00:00 ET 42.1920 -59.4284 main 360 330 P_____________ AL061897 42.1920 -59.4284 EX 50 -4 10 37
1897296N25283 1897 43 NA NA NOT_NAMED 1897-10-31 12:00:00 ET 42.6000 -59.0000 50 hurdat_atl main 334 311 O_____________ hurdat_atl AL061897 42.6000 -59.0000 EX 50 -4 11 39
1897296N25283 1897 43 NA NA NOT_NAMED 1897-10-31 15:00:00 ET 43.0785 -58.4430 main 317 300 P_____________ AL061897 43.0785 -58.4430 EX 50 -4 13 41
1897296N25283 1897 43 NA NA NOT_NAMED 1897-10-31 18:00:00 ET 43.6000 -57.8000 50 hurdat_atl main 302 O_____________ hurdat_atl AL061897 43.6000 -57.8000 EX 50 -4 14 42

IBTrACS Databaseについて

本データベースは、米国NOAAが公開する1842年以降の世界の熱帯低気圧のベストトラックデータアーカイブInternational Best Track Archive for Climate Stewardship (IBTrACS)を、ウェブで閲覧しやすい形式に変換したものです。

最終更新日:2021-10-25